createdAt,value
2018-08-30T00:01:59.566Z,99854.08
2018-08-30T00:04:27.860Z,99856.25
2018-08-30T00:06:56.010Z,99866.12
2018-08-30T00:09:24.583Z,99869.59
2018-08-30T00:11:52.722Z,99867.88
2018-08-30T00:14:21.441Z,99870.95
2018-08-30T00:16:49.787Z,99871.34
2018-08-30T00:19:18.555Z,99878.70
2018-08-30T00:21:46.670Z,99872.25
2018-08-30T00:24:14.969Z,99880.00
2018-08-30T00:26:43.075Z,99895.93
2018-08-30T00:29:11.172Z,99898.53
2018-08-30T00:31:39.366Z,99906.75
2018-08-30T00:34:07.482Z,99898.98
2018-08-30T00:36:35.653Z,99907.61
2018-08-30T00:39:03.922Z,99917.10
2018-08-30T00:41:32.030Z,99920.98
2018-08-30T00:44:00.323Z,99920.55
2018-08-30T00:46:28.459Z,99929.61
2018-08-30T00:48:56.594Z,99938.23
2018-08-30T00:51:25.122Z,99934.72
2018-08-30T00:53:53.282Z,99940.73
2018-08-30T00:56:21.466Z,99958.47
2018-08-30T00:58:49.632Z,99954.58
2018-08-30T01:01:17.798Z,99967.90
2018-08-30T01:03:45.902Z,99971.77
2018-08-30T01:06:14.090Z,99976.08
2018-08-30T01:08:42.370Z,99975.20
2018-08-30T01:11:10.590Z,99966.51
2018-08-30T01:13:38.671Z,99960.88
2018-08-30T01:16:06.790Z,99969.93
2018-08-30T01:18:35.039Z,99969.48
2018-08-30T01:21:03.390Z,99969.48
2018-08-30T01:23:31.513Z,99974.27
2018-08-30T01:25:59.652Z,99980.69
2018-08-30T01:28:27.841Z,99976.30
2018-08-30T01:30:55.949Z,99985.82
2018-08-30T01:33:24.162Z,99997.83
2018-08-30T01:35:53.019Z,99988.34
2018-08-30T01:38:21.534Z,100003.12
2018-08-30T01:40:50.124Z,99993.97
2018-08-30T01:43:18.271Z,99996.95
2018-08-30T01:45:46.364Z,100006.39
2018-08-30T01:48:14.729Z,100008.14
2018-08-30T01:50:42.878Z,100011.17
2018-08-30T01:53:11.079Z,100022.00
2018-08-30T01:55:39.215Z,100014.51
2018-08-30T01:58:07.417Z,100015.86
2018-08-30T02:00:35.723Z,100027.47
2018-08-30T02:03:03.959Z,100034.78
2018-08-30T02:05:32.108Z,100023.00
2018-08-30T02:08:00.830Z,100038.15
2018-08-30T02:10:29.111Z,100057.70
2018-08-30T02:12:58.090Z,100039.37
2018-08-30T02:15:26.415Z,100042.77
2018-08-30T02:17:55.152Z,100053.11
2018-08-30T02:20:23.591Z,100052.66
2018-08-30T02:22:51.691Z,100054.41
2018-08-30T02:25:20.023Z,100076.14
2018-08-30T02:27:48.163Z,100063.45
2018-08-30T02:30:16.277Z,100070.70
2018-08-30T02:32:44.399Z,100062.21
2018-08-30T02:35:12.539Z,100057.52
2018-08-30T02:37:40.682Z,100059.78
2018-08-30T02:40:09.138Z,100068.84
2018-08-30T02:42:37.266Z,100084.47
2018-08-30T02:45:05.717Z,100077.50
2018-08-30T02:47:34.209Z,100076.84
2018-08-30T02:50:02.547Z,100082.82
2018-08-30T02:52:30.744Z,100091.25
2018-08-30T02:54:59.195Z,100093.43
2018-08-30T02:57:27.312Z,100092.86
2018-08-30T02:59:56.908Z,100096.32
2018-08-30T03:02:25.527Z,100098.86
2018-08-30T03:04:53.783Z,100103.86
2018-08-30T03:07:21.918Z,100101.95
2018-08-30T03:09:50.078Z,100104.13
2018-08-30T03:12:18.218Z,100112.04
2018-08-30T03:14:56.438Z,100104.28
2018-08-30T03:17:24.595Z,100104.87
2018-08-30T03:19:54.288Z,100112.80
2018-08-30T03:27:20.680Z,100130.10
2018-08-30T03:29:49.077Z,100133.97
2018-08-30T03:32:17.210Z,100137.28
2018-08-30T03:34:45.542Z,100134.29
2018-08-30T03:37:15.229Z,100137.95
2018-08-30T03:39:43.307Z,100136.35
2018-08-30T03:42:11.439Z,100137.53
2018-08-30T03:44:39.648Z,100133.63
2018-08-30T03:47:08.702Z,100144.84
2018-08-30T03:49:37.225Z,100144.55
2018-08-30T03:52:17.885Z,100149.34
2018-08-30T03:54:52.447Z,100137.73
2018-08-30T03:57:20.629Z,100138.25
2018-08-30T03:59:48.768Z,100145.72
2018-08-30T04:02:16.956Z,100142.71
2018-08-30T04:04:45.119Z,100150.34
2018-08-30T04:07:13.233Z,100152.56
2018-08-30T04:09:41.540Z,100153.41
2018-08-30T04:12:09.658Z,100154.11
2018-08-30T04:14:38.550Z,100170.13
2018-08-30T04:17:07.391Z,100174.50
2018-08-30T04:19:35.562Z,100189.95
2018-08-30T04:22:03.768Z,100188.77
2018-08-30T04:24:31.943Z,100197.39
2018-08-30T04:27:01.078Z,100207.58
2018-08-30T04:29:29.219Z,100215.73
2018-08-30T04:31:57.329Z,100220.04
2018-08-30T04:34:25.619Z,100220.82
2018-08-30T04:36:53.687Z,100224.65
2018-08-30T04:39:21.771Z,100231.91
2018-08-30T04:41:49.860Z,100239.67
2018-08-30T04:44:18.173Z,100240.08
2018-08-30T04:46:46.532Z,100243.77
2018-08-30T04:49:14.778Z,100245.30
2018-08-30T04:51:42.935Z,100253.96
2018-08-30T04:54:11.095Z,100257.44
2018-08-30T04:56:39.247Z,100261.90
2018-08-30T04:59:07.393Z,100260.37
2018-08-30T05:01:35.562Z,100265.32
2018-08-30T05:04:03.672Z,100268.64
2018-08-30T05:06:31.819Z,100276.81
2018-08-30T05:09:00.046Z,100277.98
2018-08-30T05:11:28.123Z,100284.10
2018-08-30T05:13:56.279Z,100292.91
2018-08-30T05:16:25.328Z,100302.30
2018-08-30T05:18:54.179Z,100297.39
2018-08-30T05:21:22.625Z,100296.67
2018-08-30T05:23:50.671Z,100310.19
2018-08-30T05:26:18.758Z,100305.47
2018-08-30T05:28:46.853Z,100311.50
2018-08-30T05:31:15.008Z,100315.01
2018-08-30T05:33:43.103Z,100307.80
2018-08-30T05:36:11.164Z,100308.44
2018-08-30T05:38:40.381Z,100307.51
2018-08-30T05:41:08.462Z,100308.72
2018-08-30T05:43:36.717Z,100301.14
2018-08-30T05:46:04.813Z,100316.03
2018-08-30T05:48:32.919Z,100296.18
2018-08-30T05:51:01.343Z,100307.15
2018-08-30T05:53:29.581Z,100311.35
2018-08-30T05:55:57.796Z,100315.39
2018-08-30T05:58:26.000Z,100321.52
2018-08-30T06:00:54.207Z,100328.83
2018-08-30T06:03:22.295Z,100331.37
2018-08-30T06:05:50.489Z,100331.25
2018-08-30T06:08:18.632Z,100331.50
2018-08-30T06:10:46.728Z,100341.57
2018-08-30T06:13:14.808Z,100331.39
2018-08-30T06:15:43.003Z,100344.41
2018-08-30T06:18:11.106Z,100350.02
2018-08-30T06:20:39.243Z,100351.17
2018-08-30T06:23:07.507Z,100346.98
2018-08-30T06:25:36.205Z,100358.59
2018-08-30T06:28:04.466Z,100364.70
2018-08-30T06:30:33.264Z,100372.81
2018-08-30T06:33:01.614Z,100374.30
2018-08-30T06:35:29.919Z,100379.08
2018-08-30T06:37:58.056Z,100383.12
2018-08-30T06:40:26.615Z,100378.20
2018-08-30T06:42:54.695Z,100382.80
2018-08-30T06:45:22.833Z,100388.44
2018-08-30T06:47:51.323Z,100391.81
2018-08-30T06:50:19.427Z,100402.83
2018-08-30T06:52:47.765Z,100409.27
2018-08-30T06:55:15.845Z,100417.14
2018-08-30T06:57:44.092Z,100419.06
2018-08-30T07:00:12.321Z,100423.80
2018-08-30T07:02:40.463Z,100428.67
2018-08-30T07:05:08.558Z,100426.95
2018-08-30T07:07:36.707Z,100432.87
2018-08-30T07:10:05.179Z,100438.03
2018-08-30T07:12:33.454Z,100438.02
2018-08-30T07:15:01.741Z,100438.64
2018-08-30T07:17:29.903Z,100430.16
2018-08-30T07:19:58.062Z,100428.64
2018-08-30T07:22:26.287Z,100437.56
2018-08-30T07:24:54.590Z,100436.74
2018-08-30T07:27:22.735Z,100441.56
2018-08-30T07:29:50.850Z,100441.36
2018-08-30T07:32:19.034Z,100445.95
2018-08-30T07:34:47.267Z,100464.37
2018-08-30T07:37:15.320Z,100459.89
2018-08-30T07:39:43.386Z,100460.04
2018-08-30T07:42:11.499Z,100459.09
2018-08-30T07:44:39.699Z,100466.86
2018-08-30T07:47:07.764Z,100473.55
2018-08-30T07:49:35.872Z,100482.36
2018-08-30T07:52:04.023Z,100488.52
2018-08-30T07:54:32.202Z,100491.13
2018-08-30T07:57:00.338Z,100501.75
2018-08-30T07:59:28.504Z,100506.27
2018-08-30T08:01:56.631Z,100506.89
2018-08-30T08:04:24.786Z,100518.31
2018-08-30T08:06:52.877Z,100522.32
2018-08-30T08:09:21.030Z,100522.47
2018-08-30T08:11:49.130Z,100521.18
2018-08-30T08:14:17.627Z,100522.78
2018-08-30T08:16:45.695Z,100527.86
2018-08-30T08:19:13.912Z,100533.44
2018-08-30T08:21:41.995Z,100528.09
2018-08-30T08:24:10.113Z,100536.22
2018-08-30T08:26:38.220Z,100549.45
2018-08-30T08:29:07.109Z,100542.71
2018-08-30T08:31:35.212Z,100546.38
2018-08-30T08:34:03.428Z,100541.84
2018-08-30T08:36:31.629Z,100544.77
2018-08-30T08:38:59.810Z,100555.36
2018-08-30T08:41:27.983Z,100553.39
2018-08-30T08:43:56.082Z,100550.66
2018-08-30T08:46:24.995Z,100557.44
2018-08-30T08:48:53.116Z,100551.76
2018-08-30T08:51:21.223Z,100551.11
2018-08-30T08:53:49.364Z,100560.05
2018-08-30T08:56:17.397Z,100551.06
2018-08-30T08:58:45.662Z,100557.14
2018-08-30T09:01:13.736Z,100561.78
2018-08-30T09:03:41.930Z,100567.78
2018-08-30T09:06:10.088Z,100568.39
2018-08-30T09:08:38.246Z,100574.40
2018-08-30T09:11:06.373Z,100574.00
2018-08-30T09:13:34.592Z,100577.20
2018-08-30T09:16:03.362Z,100579.48
2018-08-30T09:18:31.582Z,100584.77
2018-08-30T09:20:59.653Z,100585.17
2018-08-30T09:23:27.815Z,100578.12
2018-08-30T09:25:55.935Z,100580.99
2018-08-30T09:28:26.164Z,100585.05
2018-08-30T09:30:55.156Z,100587.16
2018-08-30T09:33:23.201Z,100583.30
2018-08-30T09:35:51.304Z,100577.70
2018-08-30T09:38:19.387Z,100584.39
2018-08-30T09:40:47.468Z,100584.92
2018-08-30T09:43:15.596Z,100592.55
2018-08-30T09:45:43.699Z,100600.29
2018-08-30T09:48:11.775Z,100593.23
2018-08-30T09:50:40.463Z,100595.55
2018-08-30T09:53:08.611Z,100593.53
2018-08-30T09:55:36.819Z,100594.48
2018-08-30T09:58:05.055Z,100593.84
2018-08-30T10:00:38.440Z,100604.42
2018-08-30T10:03:06.852Z,100597.31
2018-08-30T10:05:34.975Z,100589.48
2018-08-30T10:08:10.053Z,100582.78
2018-08-30T10:10:38.371Z,100587.94
2018-08-30T10:13:06.834Z,100584.66
2018-08-30T10:15:35.295Z,100584.98
2018-08-30T10:18:03.437Z,100585.69
2018-08-30T10:20:31.504Z,100586.19
2018-08-30T10:22:59.692Z,100585.92
2018-08-30T10:25:27.986Z,100589.80
2018-08-30T10:27:55.972Z,100578.56
2018-08-30T10:30:24.063Z,100584.37
2018-08-30T10:32:52.166Z,100587.56
2018-08-30T10:35:20.296Z,100584.12
2018-08-30T10:37:48.643Z,100582.47
2018-08-30T10:40:16.718Z,100581.12
2018-08-30T10:42:44.936Z,100580.77
2018-08-30T10:45:13.014Z,100574.97
2018-08-30T10:47:41.135Z,100577.27
2018-08-30T10:50:09.278Z,100579.57
2018-08-30T10:52:37.395Z,100580.63
2018-08-30T10:55:05.571Z,100576.70
2018-08-30T10:57:33.690Z,100579.86
2018-08-30T11:00:01.831Z,100583.32
2018-08-30T11:02:29.996Z,100576.37
2018-08-30T11:04:58.584Z,100582.03
2018-08-30T11:07:26.886Z,100578.98
2018-08-30T11:09:55.644Z,100570.38
2018-08-30T11:12:23.737Z,100570.27
2018-08-30T11:14:51.900Z,100570.77
2018-08-30T11:17:20.003Z,100570.56
2018-08-30T11:19:48.143Z,100565.63
2018-08-30T11:22:16.284Z,100566.15
2018-08-30T11:24:44.517Z,100580.67
2018-08-30T11:27:12.812Z,100565.44
2018-08-30T11:29:40.955Z,100565.35
2018-08-30T11:32:09.151Z,100572.70
2018-08-30T11:34:37.284Z,100567.03
2018-08-30T11:37:05.960Z,100568.64
2018-08-30T11:39:34.195Z,100567.25
2018-08-30T11:42:02.362Z,100574.91
2018-08-30T11:44:30.482Z,100573.83
2018-08-30T11:46:58.778Z,100569.06
2018-08-30T11:49:26.947Z,100572.52
2018-08-30T11:51:55.829Z,100571.20
2018-08-30T11:54:24.009Z,100577.22
2018-08-30T11:56:52.218Z,100579.81
2018-08-30T11:59:20.311Z,100573.81
2018-08-30T12:01:48.434Z,100576.77
2018-08-30T12:04:17.460Z,100575.42
2018-08-30T12:06:45.583Z,100581.03
2018-08-30T12:09:14.308Z,100573.68
2018-08-30T12:11:42.549Z,100573.61
2018-08-30T12:14:10.664Z,100576.75
2018-08-30T12:16:38.989Z,100576.18
2018-08-30T12:19:07.165Z,100575.89
2018-08-30T12:21:35.304Z,100581.69
2018-08-30T12:24:03.415Z,100582.69
2018-08-30T12:26:31.604Z,100585.94
2018-08-30T12:28:59.819Z,100587.93
2018-08-30T12:31:27.894Z,100583.78
2018-08-30T12:33:57.311Z,100578.19
2018-08-30T12:36:26.179Z,100586.13
2018-08-30T12:38:54.419Z,100583.48
2018-08-30T12:41:22.593Z,100580.42
2018-08-30T12:43:50.800Z,100586.63
2018-08-30T12:46:18.728Z,100580.19
2018-08-30T12:48:46.890Z,100565.04
2018-08-30T12:51:15.501Z,100551.84
2018-08-30T12:53:43.459Z,100554.82
2018-08-30T12:56:12.130Z,100556.20
2018-08-30T12:58:40.101Z,100573.01
2018-08-30T13:01:08.250Z,100563.09
2018-08-30T13:03:36.526Z,100567.05
2018-08-30T13:06:04.951Z,100557.27
2018-08-30T13:08:33.066Z,100566.47
2018-08-30T13:11:01.170Z,100567.66
2018-08-30T13:13:29.148Z,100567.52
2018-08-30T13:15:57.353Z,100567.41
2018-08-30T13:18:26.570Z,100577.45
2018-08-30T13:20:54.903Z,100581.00
2018-08-30T13:23:23.005Z,100578.95
2018-08-30T13:25:51.276Z,100561.94
2018-08-30T13:28:19.381Z,100564.00
2018-08-30T13:30:47.375Z,100558.50
2018-08-30T13:33:19.909Z,100543.77
2018-08-30T13:35:43.620Z,100539.11
2018-08-30T13:38:11.891Z,100534.19
2018-08-30T13:40:40.198Z,100540.14
2018-08-30T13:43:08.070Z,100527.19
2018-08-30T13:45:36.272Z,100522.83
2018-08-30T13:48:04.434Z,100512.94
2018-08-30T13:50:32.649Z,100526.42
2018-08-30T13:53:01.206Z,100531.95
2018-08-30T13:55:29.249Z,100519.24
2018-08-30T13:57:57.735Z,100515.24
2018-08-30T14:00:27.179Z,100514.03
2018-08-30T14:02:55.048Z,100535.58
2018-08-30T14:05:23.212Z,100541.46
2018-08-30T14:07:51.502Z,100528.87
2018-08-30T14:10:19.785Z,100522.25
2018-08-30T14:12:47.621Z,100526.11
2018-08-30T14:15:15.939Z,100521.12
2018-08-30T14:17:44.261Z,100514.84
2018-08-30T14:20:12.384Z,100510.88
2018-08-30T14:22:40.752Z,100530.12
2018-08-30T14:25:08.766Z,100542.70
2018-08-30T14:27:37.052Z,100543.61
2018-08-30T14:30:05.165Z,100540.23
2018-08-30T14:32:33.263Z,100549.57
2018-08-30T14:35:01.444Z,100546.75
2018-08-30T14:37:29.575Z,100545.98
2018-08-30T14:39:57.783Z,100547.59
2018-08-30T14:42:26.507Z,100554.70
2018-08-30T14:44:54.599Z,100551.13
2018-08-30T14:47:23.085Z,100559.73
2018-08-30T14:49:51.279Z,100555.22
2018-08-30T14:52:19.601Z,100549.81
2018-08-30T14:54:47.752Z,100544.70
2018-08-30T14:57:16.187Z,100548.12
2018-08-30T14:59:44.333Z,100547.80
2018-08-30T15:02:12.490Z,100553.23
2018-08-30T15:04:40.604Z,100564.61
2018-08-30T15:07:08.728Z,100561.75
2018-08-30T15:09:36.794Z,100558.11
2018-08-30T15:12:04.908Z,100555.20
2018-08-30T15:14:33.082Z,100550.51
2018-08-30T15:17:01.556Z,100528.80
2018-08-30T15:19:29.448Z,100538.37
2018-08-30T15:21:57.568Z,100531.27
2018-08-30T15:29:18.348Z,100541.92
2018-08-30T15:31:46.535Z,100530.88
2018-08-30T15:34:14.656Z,100535.52
2018-08-30T15:36:42.929Z,100534.97
2018-08-30T15:39:11.644Z,100545.69
2018-08-30T15:41:39.897Z,100533.59
2018-08-30T15:44:08.119Z,100534.14
2018-08-30T15:46:36.300Z,100550.16
2018-08-30T15:49:04.654Z,100559.28
2018-08-30T15:51:32.885Z,100557.18
2018-08-30T15:54:01.265Z,100554.11
2018-08-30T15:56:29.315Z,100544.84
2018-08-30T15:58:57.422Z,100557.10
2018-08-30T16:01:25.547Z,100547.75
2018-08-30T16:03:53.672Z,100545.53
2018-08-30T16:06:21.787Z,100545.54
2018-08-30T16:08:49.899Z,100550.07
2018-08-30T16:11:18.151Z,100557.19
2018-08-30T16:13:46.199Z,100555.05
2018-08-30T16:16:14.541Z,100546.14
2018-08-30T16:18:42.702Z,100550.89
2018-08-30T16:21:10.815Z,100550.59
2018-08-30T16:23:39.057Z,100551.62
2018-08-30T16:26:07.363Z,100558.20
2018-08-30T16:28:36.153Z,100561.45
2018-08-30T16:31:04.268Z,100567.14
2018-08-30T16:33:32.359Z,100566.12
2018-08-30T16:36:00.458Z,100568.55
2018-08-30T16:38:28.585Z,100569.20
2018-08-30T16:40:57.127Z,100569.57
2018-08-30T16:43:25.387Z,100576.47
2018-08-30T16:45:53.519Z,100579.17
2018-08-30T16:48:21.633Z,100576.97
2018-08-30T16:50:49.705Z,100580.47
2018-08-30T16:53:17.952Z,100576.22
2018-08-30T16:55:46.023Z,100579.27
2018-08-30T16:58:14.327Z,100576.70
2018-08-30T17:00:42.471Z,100574.98
2018-08-30T17:03:10.933Z,100570.10
2018-08-30T17:05:39.127Z,100574.98
2018-08-30T17:08:07.300Z,100581.55
2018-08-30T17:10:35.457Z,100581.11
2018-08-30T17:13:03.507Z,100589.33
2018-08-30T17:15:31.727Z,100584.57
2018-08-30T17:17:59.909Z,100582.39
2018-08-30T17:20:46.660Z,100581.12
2018-08-30T17:23:14.839Z,100579.83
2018-08-30T17:25:43.520Z,100584.20
2018-08-30T17:28:12.124Z,100581.97
2018-08-30T17:31:00.769Z,100581.11
2018-08-30T17:33:50.858Z,100577.11
2018-08-30T17:36:19.601Z,100579.37
2018-08-30T17:38:47.818Z,100572.02
2018-08-30T17:41:15.894Z,100579.86
2018-08-30T17:43:44.015Z,100584.57
2018-08-30T17:46:12.223Z,100583.75
2018-08-30T17:48:40.435Z,100583.31
2018-08-30T17:51:08.595Z,100585.05
2018-08-30T17:53:36.703Z,100591.09
2018-08-30T17:56:04.974Z,100589.86
2018-08-30T17:58:33.045Z,100594.63
2018-08-30T18:01:01.247Z,100593.73
2018-08-30T18:03:29.466Z,100595.88
2018-08-30T18:05:57.619Z,100599.34
2018-08-30T18:08:25.841Z,100598.49
2018-08-30T18:10:54.018Z,100603.23
2018-08-30T18:13:22.602Z,100607.11
2018-08-30T18:15:50.784Z,100601.09
2018-08-30T18:18:18.938Z,100602.38
2018-08-30T18:20:47.067Z,100600.20
2018-08-30T18:23:15.168Z,100605.38
2018-08-30T18:25:43.343Z,100605.78
2018-08-30T18:28:11.720Z,100611.03
2018-08-30T18:30:39.815Z,100611.41
2018-08-30T18:33:07.942Z,100623.94
2018-08-30T18:35:36.037Z,100621.36
2018-08-30T18:38:04.168Z,100619.21
2018-08-30T18:40:32.399Z,100627.41
2018-08-30T18:43:00.471Z,100629.53
2018-08-30T18:45:28.649Z,100632.16
2018-08-30T18:47:57.641Z,100624.69
2018-08-30T18:50:26.037Z,100631.16
2018-08-30T18:52:54.116Z,100627.72
2018-08-30T18:55:22.403Z,100632.91
2018-08-30T18:57:50.623Z,100631.78
2018-08-30T19:00:18.804Z,100645.75
2018-08-30T19:02:49.164Z,100648.27
2018-08-30T19:05:17.275Z,100652.85
2018-08-30T19:07:45.379Z,100652.36
2018-08-30T19:10:14.877Z,100648.98
2018-08-30T19:12:44.161Z,100656.36
2018-08-30T19:15:17.560Z,100655.38
2018-08-30T19:17:51.148Z,100651.42
2018-08-30T19:20:19.257Z,100660.48
2018-08-30T19:22:47.352Z,100653.45
2018-08-30T19:25:19.708Z,100661.38
2018-08-30T19:27:47.939Z,100663.45
2018-08-30T19:30:21.350Z,100662.07
2018-08-30T19:32:49.528Z,100662.97
2018-08-30T19:35:23.008Z,100669.80
2018-08-30T19:37:51.383Z,100676.03
2018-08-30T19:40:25.012Z,100676.87
2018-08-30T19:42:53.174Z,100677.09
2018-08-30T19:45:21.393Z,100680.20
2018-08-30T19:47:49.509Z,100683.22
2018-08-30T19:50:17.611Z,100683.18
2018-08-30T19:52:46.926Z,100681.87
2018-08-30T19:55:15.083Z,100687.55
2018-08-30T19:57:43.364Z,100688.77
2018-08-30T20:00:11.589Z,100682.33
2018-08-30T20:02:40.013Z,100684.10
2018-08-30T20:05:08.873Z,100687.25
2018-08-30T20:07:37.472Z,100688.53
2018-08-30T20:10:06.338Z,100689.73
2018-08-30T20:12:34.552Z,100695.30
2018-08-30T20:15:05.289Z,100698.61
2018-08-30T20:17:33.514Z,100699.12
2018-08-30T20:20:01.649Z,100695.37
2018-08-30T20:22:30.058Z,100696.93
2018-08-30T20:24:58.754Z,100694.80
2018-08-30T20:27:27.123Z,100689.20
2018-08-30T20:29:55.828Z,100690.93
2018-08-30T20:32:24.184Z,100690.67
2018-08-30T20:34:52.369Z,100692.34
2018-08-30T20:37:20.605Z,100686.25
2018-08-30T20:39:48.888Z,100690.07
2018-08-30T20:42:17.185Z,100687.48
2018-08-30T20:44:45.484Z,100693.56
2018-08-30T20:47:13.670Z,100690.11
2018-08-30T20:49:41.872Z,100692.56
2018-08-30T20:52:10.147Z,100687.70
2018-08-30T20:54:38.365Z,100690.80
2018-08-30T20:57:06.646Z,100692.02
2018-08-30T20:59:34.720Z,100695.02
2018-08-30T21:02:02.933Z,100694.09
2018-08-30T21:04:30.964Z,100692.39
2018-08-30T21:07:01.312Z,100691.93
2018-08-30T21:09:29.512Z,100697.11
2018-08-30T21:11:58.480Z,100690.02
2018-08-30T21:14:26.596Z,100683.09
2018-08-30T21:16:56.781Z,100684.36
2018-08-30T21:19:25.134Z,100691.04
2018-08-30T21:21:53.686Z,100690.84
2018-08-30T21:24:22.003Z,100695.44
2018-08-30T21:26:50.229Z,100692.39
2018-08-30T21:29:18.468Z,100688.86
2018-08-30T21:31:46.706Z,100692.10
2018-08-30T21:34:15.878Z,100701.50
2018-08-30T21:36:44.035Z,100687.90
2018-08-30T21:39:12.247Z,100692.56
2018-08-30T21:41:40.380Z,100691.16
2018-08-30T21:44:08.517Z,100689.14
2018-08-30T21:46:36.684Z,100696.87
2018-08-30T21:49:04.790Z,100693.02
2018-08-30T21:51:32.874Z,100698.86
2018-08-30T21:54:01.118Z,100701.23
2018-08-30T21:56:29.235Z,100703.58
2018-08-30T21:58:58.676Z,100697.43
2018-08-30T22:01:26.842Z,100696.28
2018-08-30T22:03:55.116Z,100690.59
2018-08-30T22:06:23.231Z,100694.78
2018-08-30T22:08:51.496Z,100691.14
2018-08-30T22:11:19.984Z,100691.34
2018-08-30T22:13:48.101Z,100688.31
2018-08-30T22:16:16.205Z,100691.99
2018-08-30T22:18:44.658Z,100692.00
2018-08-30T22:21:12.951Z,100694.37
2018-08-30T22:23:41.140Z,100696.65
2018-08-30T22:26:09.501Z,100693.58
2018-08-30T22:28:37.624Z,100702.31
2018-08-30T22:31:05.927Z,100703.31
2018-08-30T22:33:34.056Z,100701.20
2018-08-30T22:36:02.128Z,100703.28
2018-08-30T22:38:30.255Z,100697.94
2018-08-30T22:40:58.819Z,100698.52
2018-08-30T22:43:26.937Z,100700.95
2018-08-30T22:45:55.040Z,100701.73
2018-08-30T22:48:23.122Z,100698.34
2018-08-30T22:50:51.239Z,100702.25
2018-08-30T22:53:19.420Z,100702.34
2018-08-30T22:55:47.547Z,100701.23
2018-08-30T22:58:15.668Z,100694.22
2018-08-30T23:00:44.020Z,100695.73
2018-08-30T23:03:12.152Z,100696.34
2018-08-30T23:05:42.482Z,100688.41
2018-08-30T23:08:10.580Z,100688.25
2018-08-30T23:10:38.699Z,100691.78
2018-08-30T23:13:07.156Z,100692.28
2018-08-30T23:15:35.270Z,100695.47
2018-08-30T23:18:03.407Z,100690.03
2018-08-30T23:20:31.540Z,100688.93
2018-08-30T23:22:59.712Z,100689.45
2018-08-30T23:25:28.858Z,100687.30
2018-08-30T23:27:57.010Z,100683.33
2018-08-30T23:30:25.146Z,100684.92
2018-08-30T23:32:53.243Z,100683.57
2018-08-30T23:35:21.372Z,100676.25
2018-08-30T23:37:49.481Z,100678.61
2018-08-30T23:40:17.567Z,100671.95
2018-08-30T23:42:45.764Z,100671.19
2018-08-30T23:45:13.932Z,100673.47
2018-08-30T23:47:42.069Z,100675.66
2018-08-30T23:50:10.212Z,100679.44
2018-08-30T23:52:38.432Z,100677.98
2018-08-30T23:55:06.696Z,100673.61
2018-08-30T23:57:34.842Z,100672.05
